createdAt,value
2023-08-26T00:02:05.133Z,10.80
2023-08-26T00:04:37.241Z,10.30
2023-08-26T00:07:05.409Z,9.70
2023-08-26T00:09:33.626Z,11.00
2023-08-26T00:12:01.680Z,10.50
2023-08-26T00:14:29.813Z,10.70
2023-08-26T00:16:59.078Z,12.30
2023-08-26T00:19:27.321Z,11.40
2023-08-26T00:21:55.495Z,14.60
2023-08-26T00:24:23.718Z,11.10
2023-08-26T00:26:51.748Z,13.30
2023-08-26T00:29:19.843Z,12.70
2023-08-26T00:31:47.891Z,10.10
2023-08-26T00:34:17.035Z,11.80
2023-08-26T00:36:45.203Z,11.50
2023-08-26T00:39:13.632Z,13.20
2023-08-26T00:41:41.808Z,11.20
2023-08-26T00:44:10.884Z,13.30
2023-08-26T00:46:39.322Z,11.10
2023-08-26T00:49:08.164Z,11.90
2023-08-26T00:51:38.373Z,11.70
2023-08-26T00:54:09.460Z,11.00
2023-08-26T00:56:38.188Z,9.60
2023-08-26T00:59:06.394Z,10.90
2023-08-26T01:01:35.479Z,11.50
2023-08-26T01:04:05.208Z,13.20
2023-08-26T01:06:33.416Z,11.50
2023-08-26T01:09:01.665Z,9.90
2023-08-26T01:11:37.711Z,12.30
2023-08-26T01:14:34.753Z,10.60
2023-08-26T01:17:06.749Z,11.50
2023-08-26T01:19:34.986Z,9.90
2023-08-26T01:22:07.134Z,12.80
2023-08-26T01:24:36.627Z,12.70
2023-08-26T01:27:05.150Z,9.20
2023-08-26T01:29:33.536Z,11.80
2023-08-26T01:32:13.862Z,12.20
2023-08-26T01:34:44.040Z,11.40
2023-08-26T01:37:13.083Z,15.50
2023-08-26T01:39:43.130Z,10.70
2023-08-26T01:42:14.323Z,11.40
2023-08-26T01:44:43.171Z,10.10
2023-08-26T01:47:11.454Z,13.70
2023-08-26T01:49:39.588Z,12.00
2023-08-26T01:52:07.953Z,11.80
2023-08-26T01:54:36.351Z,9.90
2023-08-26T01:57:05.550Z,12.30
2023-08-26T01:59:33.823Z,14.40
2023-08-26T02:02:02.167Z,11.40
2023-08-26T02:04:30.453Z,11.60
2023-08-26T02:06:58.338Z,12.30
2023-08-26T02:09:26.435Z,15.30
2023-08-26T02:11:54.643Z,12.50
2023-08-26T02:14:22.648Z,11.70
2023-08-26T02:16:52.225Z,11.10
2023-08-26T02:19:20.503Z,10.70
2023-08-26T02:21:48.726Z,11.50
2023-08-26T02:24:24.352Z,13.10
2023-08-26T02:26:52.478Z,10.70
2023-08-26T02:29:20.937Z,9.90
2023-08-26T02:31:49.049Z,11.80
2023-08-26T02:34:18.675Z,9.30
2023-08-26T02:36:46.656Z,11.60
2023-08-26T02:39:14.852Z,10.50
2023-08-26T02:41:42.974Z,8.70
2023-08-26T02:44:10.994Z,10.20
2023-08-26T02:46:39.133Z,10.00
2023-08-26T02:49:07.750Z,10.80
2023-08-26T02:51:35.893Z,12.90
2023-08-26T02:54:04.091Z,13.60
2023-08-26T02:56:32.007Z,12.90
2023-08-26T02:59:00.110Z,12.50
2023-08-26T03:01:32.023Z,13.10
2023-08-26T03:04:00.138Z,10.90
2023-08-26T03:06:29.850Z,10.50
2023-08-26T03:08:57.948Z,10.10
2023-08-26T03:11:26.913Z,11.90
2023-08-26T03:13:55.002Z,11.70
2023-08-26T03:16:23.159Z,12.60
2023-08-26T03:18:51.450Z,15.00
2023-08-26T03:21:19.650Z,11.30
2023-08-26T03:23:47.652Z,11.10
2023-08-26T03:26:15.840Z,11.10
2023-08-26T03:28:43.993Z,10.20
2023-08-26T03:31:13.018Z,12.50
2023-08-26T03:33:45.892Z,11.50
2023-08-26T03:36:14.348Z,9.20
2023-08-26T03:38:44.093Z,10.70
2023-08-26T03:41:12.247Z,16.20
2023-08-26T03:43:41.503Z,10.30
2023-08-26T03:46:10.222Z,11.00
2023-08-26T03:48:38.450Z,11.50
2023-08-26T03:51:06.704Z,12.00
2023-08-26T03:53:36.482Z,14.60
2023-08-26T03:56:05.150Z,16.40
2023-08-26T03:58:33.490Z,14.40
2023-08-26T04:01:02.985Z,14.30
2023-08-26T04:03:31.149Z,12.90
2023-08-26T04:06:03.872Z,14.90
2023-08-26T04:08:33.723Z,13.50
2023-08-26T04:11:02.564Z,14.90
2023-08-26T04:13:30.895Z,18.30
2023-08-26T04:15:59.746Z,15.70
2023-08-26T04:18:27.955Z,14.90
2023-08-26T04:20:56.056Z,19.60
2023-08-26T04:23:24.171Z,13.90
2023-08-26T04:25:55.679Z,15.80
2023-08-26T04:28:23.823Z,21.20
2023-08-26T04:30:51.849Z,16.30
2023-08-26T04:33:21.712Z,19.80
2023-08-26T04:35:50.038Z,20.40
2023-08-26T04:38:18.135Z,24.50
2023-08-26T04:40:46.572Z,16.10
2023-08-26T04:43:14.837Z,18.80
2023-08-26T04:45:42.849Z,17.70
2023-08-26T04:48:11.104Z,16.70
2023-08-26T04:50:41.656Z,23.10
2023-08-26T04:53:09.801Z,22.30
2023-08-26T04:55:38.021Z,21.80
2023-08-26T04:58:09.194Z,22.60
2023-08-26T05:00:38.237Z,28.10
2023-08-26T05:03:06.346Z,25.10
2023-08-26T05:05:34.405Z,23.00
2023-08-26T05:08:02.824Z,24.20
2023-08-26T05:10:30.765Z,21.40
2023-08-26T05:12:59.347Z,20.10
2023-08-26T05:15:30.227Z,18.30
2023-08-26T05:17:58.789Z,22.60
2023-08-26T05:20:29.049Z,24.00
2023-08-26T05:22:57.873Z,17.30
2023-08-26T05:25:26.077Z,22.20
2023-08-26T05:27:54.517Z,24.40
2023-08-26T05:30:23.432Z,23.10
2023-08-26T05:32:55.820Z,24.10
2023-08-26T05:35:25.476Z,21.10
2023-08-26T05:37:53.530Z,33.30
2023-08-26T05:40:28.048Z,21.10
2023-08-26T05:42:57.887Z,23.20
2023-08-26T05:45:27.531Z,23.10
2023-08-26T05:47:56.719Z,21.80
2023-08-26T05:50:25.328Z,23.40
2023-08-26T05:52:53.653Z,24.00
2023-08-26T05:55:22.830Z,21.50
2023-08-26T05:57:51.143Z,21.80
2023-08-26T06:00:19.331Z,20.20
2023-08-26T06:02:51.253Z,17.90
2023-08-26T06:05:20.150Z,22.90
2023-08-26T06:07:52.155Z,20.80
2023-08-26T06:10:20.292Z,22.00
2023-08-26T06:12:48.417Z,29.30
2023-08-26T06:15:17.661Z,22.20
2023-08-26T06:17:45.795Z,30.60
2023-08-26T06:20:19.158Z,21.60
2023-08-26T06:22:48.082Z,31.70
2023-08-26T06:25:16.878Z,25.70
2023-08-26T06:27:45.089Z,22.30
2023-08-26T06:30:14.852Z,20.10
2023-08-26T06:32:43.649Z,15.60
2023-08-26T06:35:12.511Z,15.50
2023-08-26T06:37:40.952Z,23.80
2023-08-26T06:40:12.295Z,23.70
2023-08-26T06:42:40.836Z,18.90
2023-08-26T06:45:11.348Z,19.70
2023-08-26T06:47:40.631Z,24.10
2023-08-26T06:50:09.515Z,19.40
2023-08-26T06:52:37.996Z,21.10
2023-08-26T06:55:06.594Z,18.00
2023-08-26T06:57:34.552Z,13.10
2023-08-26T07:00:04.917Z,18.50
2023-08-26T07:02:33.169Z,14.40
2023-08-26T07:05:01.434Z,16.30
2023-08-26T07:07:29.509Z,14.90
2023-08-26T07:09:57.603Z,13.40
2023-08-26T07:12:25.720Z,18.60
2023-08-26T07:14:54.221Z,18.70
2023-08-26T07:17:22.443Z,19.10
2023-08-26T07:19:51.500Z,15.40
2023-08-26T07:22:27.207Z,11.40
2023-08-26T07:24:57.358Z,12.90
2023-08-26T07:27:25.483Z,17.00
2023-08-26T07:29:53.562Z,11.50
2023-08-26T07:32:21.604Z,15.90
2023-08-26T07:34:53.473Z,11.30
2023-08-26T07:37:21.535Z,14.10
2023-08-26T07:39:51.165Z,13.70
2023-08-26T07:42:19.318Z,11.90
2023-08-26T07:44:48.107Z,10.10
2023-08-26T07:47:16.847Z,11.80
2023-08-26T07:49:45.407Z,14.20
2023-08-26T07:52:14.813Z,14.00
2023-08-26T07:54:42.954Z,10.50
2023-08-26T07:57:11.151Z,12.30
2023-08-26T07:59:39.247Z,13.20
2023-08-26T08:02:07.381Z,14.10
2023-08-26T08:04:35.418Z,11.70
2023-08-26T08:07:04.106Z,14.50
2023-08-26T08:09:32.246Z,11.60
2023-08-26T08:12:00.482Z,11.20
2023-08-26T08:14:28.700Z,13.40
2023-08-26T08:16:56.863Z,13.50
2023-08-26T08:19:26.221Z,17.10
2023-08-26T08:21:54.263Z,13.40
2023-08-26T08:24:23.011Z,16.10
2023-08-26T08:26:51.047Z,14.10
2023-08-26T08:29:19.554Z,12.60
2023-08-26T08:31:47.720Z,14.30
2023-08-26T08:34:15.737Z,12.80
2023-08-26T08:36:43.679Z,15.60
2023-08-26T08:39:11.613Z,12.90
2023-08-26T08:41:42.626Z,15.00
2023-08-26T08:44:15.842Z,13.90
2023-08-26T08:46:46.887Z,13.00
2023-08-26T08:49:15.625Z,15.80
2023-08-26T08:51:43.858Z,14.90
2023-08-26T08:54:11.989Z,13.90
2023-08-26T08:56:40.057Z,16.10
2023-08-26T08:59:08.748Z,15.00
2023-08-26T09:01:36.752Z,14.50
2023-08-26T09:04:08.996Z,12.20
2023-08-26T09:06:37.178Z,13.30
2023-08-26T09:09:29.719Z,12.90
2023-08-26T09:12:01.916Z,12.10
2023-08-26T09:14:30.298Z,10.90
2023-08-26T09:17:01.356Z,15.00
2023-08-26T09:19:29.466Z,14.50
2023-08-26T09:21:58.897Z,12.50
2023-08-26T09:24:27.004Z,15.30
2023-08-26T09:27:00.264Z,13.10
2023-08-26T09:29:28.749Z,15.40
2023-08-26T09:31:57.504Z,12.30
2023-08-26T09:34:27.714Z,14.10
2023-08-26T09:36:56.492Z,14.60
2023-08-26T09:39:24.512Z,11.70
2023-08-26T09:41:56.370Z,14.10
2023-08-26T09:44:24.666Z,19.30
2023-08-26T09:46:57.461Z,12.00
2023-08-26T09:49:25.537Z,14.30
2023-08-26T09:51:54.095Z,16.70
2023-08-26T09:54:23.154Z,17.80
2023-08-26T09:56:51.530Z,13.70
2023-08-26T09:59:20.243Z,14.90
2023-08-26T10:01:49.409Z,12.80
2023-08-26T10:04:23.633Z,15.00
2023-08-26T10:06:59.680Z,15.10
2023-08-26T10:09:36.399Z,16.20
2023-08-26T10:12:10.231Z,12.50
2023-08-26T10:14:41.958Z,11.40
2023-08-26T10:17:12.579Z,16.50
2023-08-26T10:19:42.761Z,12.40
2023-08-26T10:22:11.872Z,12.70
2023-08-26T10:24:40.524Z,8.30
2023-08-26T10:27:08.870Z,12.50
2023-08-26T10:29:38.331Z,8.40
2023-08-26T10:32:21.111Z,11.00
2023-08-26T10:34:55.582Z,10.10
2023-08-26T10:39:57.437Z,9.60
2023-08-26T10:42:25.478Z,13.00
2023-08-26T10:44:58.885Z,10.10
2023-08-26T10:47:40.166Z,12.30
2023-08-26T10:50:24.531Z,11.70
2023-08-26T10:52:56.257Z,14.50
2023-08-26T10:55:26.545Z,9.90
2023-08-26T10:58:15.351Z,10.60
2023-08-26T11:00:46.081Z,11.40
2023-08-26T11:03:18.302Z,7.00
2023-08-26T11:06:00.850Z,9.90
2023-08-26T11:08:29.266Z,14.10
2023-08-26T11:10:57.470Z,13.00
2023-08-26T11:13:25.605Z,11.50
2023-08-26T11:15:54.081Z,8.40
2023-08-26T11:18:23.136Z,11.80
2023-08-26T11:20:51.462Z,7.70
2023-08-26T11:23:24.125Z,13.70
2023-08-26T11:25:52.242Z,9.30
2023-08-26T11:28:20.303Z,11.90
2023-08-26T11:30:48.505Z,20.80
2023-08-26T11:33:18.429Z,9.80
2023-08-26T11:35:58.773Z,13.60
2023-08-26T11:38:36.258Z,9.30
2023-08-26T11:41:05.807Z,12.50
2023-08-26T11:43:36.124Z,8.00
2023-08-26T11:46:06.939Z,6.70
2023-08-26T11:48:37.925Z,9.20
2023-08-26T11:51:07.059Z,12.50
2023-08-26T11:53:38.356Z,11.00
2023-08-26T11:56:07.116Z,7.00
2023-08-26T11:58:38.982Z,10.80
2023-08-26T12:01:09.415Z,9.30
2023-08-26T12:03:45.779Z,15.70
2023-08-26T12:06:15.958Z,8.80
2023-08-26T12:08:46.043Z,8.90
2023-08-26T12:11:16.673Z,6.90
2023-08-26T12:13:45.682Z,8.40
2023-08-26T12:16:16.182Z,8.20
2023-08-26T12:18:44.460Z,9.40
2023-08-26T12:21:12.450Z,13.50
2023-08-26T12:23:40.632Z,9.80
2023-08-26T12:26:15.163Z,10.40
2023-08-26T12:31:11.951Z,9.20
2023-08-26T12:36:11.476Z,14.20
2023-08-26T12:38:39.691Z,10.00
2023-08-26T12:41:08.543Z,10.80
2023-08-26T12:43:36.565Z,10.10
2023-08-26T12:46:04.586Z,8.70
2023-08-26T12:48:53.107Z,12.00
2023-08-26T12:51:21.190Z,11.70
2023-08-26T12:53:49.899Z,9.70
2023-08-26T12:56:18.306Z,6.60
2023-08-26T12:58:48.582Z,8.20
2023-08-26T13:01:18.011Z,10.30
2023-08-26T13:03:46.130Z,9.10
2023-08-26T13:06:14.785Z,10.90
2023-08-26T13:08:43.122Z,10.20
2023-08-26T13:11:11.109Z,9.20
2023-08-26T13:13:39.288Z,12.20
2023-08-26T13:16:09.511Z,12.50
2023-08-26T13:18:44.502Z,11.80
2023-08-26T13:21:13.332Z,7.60
2023-08-26T13:23:41.505Z,10.30
2023-08-26T13:26:09.779Z,7.20
2023-08-26T13:28:37.848Z,10.70
2023-08-26T13:31:06.133Z,10.90
2023-08-26T13:33:34.307Z,8.10
2023-08-26T13:36:02.789Z,12.30
2023-08-26T13:38:31.074Z,8.60
2023-08-26T13:40:59.369Z,8.20
2023-08-26T13:43:27.373Z,8.10
2023-08-26T13:45:55.459Z,16.40
2023-08-26T13:48:23.590Z,9.50
2023-08-26T13:50:51.956Z,11.40
2023-08-26T13:53:19.942Z,10.20
2023-08-26T13:55:48.190Z,8.60
2023-08-26T13:58:21.764Z,10.40
2023-08-26T14:00:49.872Z,12.40
2023-08-26T14:03:17.905Z,10.60
2023-08-26T14:05:47.237Z,12.10
2023-08-26T14:08:15.316Z,10.50
2023-08-26T14:10:43.940Z,12.50
2023-08-26T14:13:13.080Z,10.40
2023-08-26T14:15:45.384Z,13.60
2023-08-26T14:18:13.537Z,12.00
2023-08-26T14:20:41.500Z,10.40
2023-08-26T14:23:09.538Z,6.50
2023-08-26T14:25:44.250Z,12.50
2023-08-26T14:28:12.596Z,8.60
2023-08-26T14:30:41.198Z,10.50
2023-08-26T14:33:09.250Z,11.40
2023-08-26T14:35:37.276Z,7.50
2023-08-26T14:38:05.281Z,7.60
2023-08-26T14:40:33.305Z,9.80
2023-08-26T14:43:01.461Z,9.40
2023-08-26T14:45:29.640Z,16.40
2023-08-26T14:47:58.174Z,14.70
2023-08-26T14:50:26.495Z,8.30
2023-08-26T14:52:54.599Z,9.50
2023-08-26T14:55:22.876Z,14.20
2023-08-26T14:57:50.843Z,10.20
2023-08-26T15:00:19.060Z,8.50
2023-08-26T15:02:47.110Z,8.60
2023-08-26T15:05:15.208Z,10.00
2023-08-26T15:07:43.300Z,8.10
2023-08-26T15:10:11.444Z,10.90
2023-08-26T15:12:39.736Z,9.60
2023-08-26T15:15:08.192Z,7.80
2023-08-26T15:17:36.613Z,11.80
2023-08-26T15:20:05.526Z,10.60
2023-08-26T15:22:35.579Z,10.60
2023-08-26T15:25:06.893Z,11.30
2023-08-26T15:27:34.932Z,9.50
2023-08-26T15:30:04.962Z,9.40
2023-08-26T15:32:32.987Z,11.70
2023-08-26T15:35:00.963Z,10.80
2023-08-26T15:37:29.008Z,8.30
2023-08-26T15:39:57.054Z,7.40
2023-08-26T15:42:26.385Z,13.10
2023-08-26T15:44:54.596Z,9.50
2023-08-26T15:47:22.708Z,9.20
2023-08-26T15:49:51.017Z,10.10
2023-08-26T15:52:19.021Z,13.30
2023-08-26T15:54:47.024Z,7.70
2023-08-26T15:57:18.375Z,9.60
2023-08-26T15:59:46.836Z,8.10
2023-08-26T16:02:14.940Z,11.20
2023-08-26T16:04:45.178Z,8.50
2023-08-26T16:07:14.880Z,10.50
2023-08-26T16:09:43.135Z,10.50
2023-08-26T16:12:17.672Z,11.10
2023-08-26T16:14:45.887Z,12.90
2023-08-26T16:17:13.958Z,11.10
2023-08-26T16:19:42.120Z,9.80
2023-08-26T16:22:10.271Z,12.40
2023-08-26T16:24:38.095Z,10.60
2023-08-26T16:27:07.407Z,8.80
2023-08-26T16:29:36.560Z,12.80
2023-08-26T16:32:04.900Z,10.40
2023-08-26T16:34:35.893Z,10.20
2023-08-26T16:37:04.687Z,13.80
2023-08-26T16:39:32.665Z,8.80
2023-08-26T16:42:01.274Z,18.00
2023-08-26T16:44:29.154Z,15.40
2023-08-26T16:46:57.197Z,15.70
2023-08-26T16:49:25.181Z,16.40
2023-08-26T16:51:53.124Z,12.60
2023-08-26T16:54:21.147Z,13.00
2023-08-26T16:56:49.670Z,12.90
2023-08-26T16:59:17.737Z,11.20
2023-08-26T17:01:45.809Z,14.70
2023-08-26T17:04:13.749Z,15.00
2023-08-26T17:06:41.804Z,18.10
2023-08-26T17:09:09.860Z,15.40
2023-08-26T17:11:38.140Z,18.80
2023-08-26T17:14:07.020Z,19.30
2023-08-26T17:16:35.726Z,16.40
2023-08-26T17:19:04.750Z,17.80
2023-08-26T17:21:32.900Z,15.10
2023-08-26T17:24:00.827Z,10.80
2023-08-26T17:26:28.861Z,14.00
2023-08-26T17:28:56.853Z,13.20
2023-08-26T17:31:24.834Z,12.40
2023-08-26T17:33:52.758Z,17.60
2023-08-26T17:36:21.285Z,17.60
2023-08-26T17:38:49.314Z,13.80
2023-08-26T17:41:17.360Z,14.30
2023-08-26T17:43:45.298Z,12.90
2023-08-26T17:46:13.400Z,17.10
2023-08-26T17:48:41.449Z,14.10
2023-08-26T17:51:09.423Z,12.10
2023-08-26T17:53:37.502Z,15.90
2023-08-26T17:56:05.484Z,12.20
2023-08-26T17:58:33.382Z,13.90
2023-08-26T18:01:01.463Z,12.30
2023-08-26T18:03:31.513Z,11.20
2023-08-26T18:05:59.794Z,16.10
2023-08-26T18:08:27.754Z,12.90
2023-08-26T18:10:55.836Z,10.60
2023-08-26T18:13:23.861Z,9.80
2023-08-26T18:15:51.843Z,15.30
2023-08-26T18:18:19.864Z,12.70
2023-08-26T18:20:47.943Z,17.60
2023-08-26T18:23:15.981Z,13.80
2023-08-26T18:25:44.008Z,14.40
2023-08-26T18:28:12.098Z,13.80
2023-08-26T18:30:40.053Z,14.90
2023-08-26T18:33:08.181Z,14.10
2023-08-26T18:35:36.233Z,22.80
2023-08-26T18:38:04.471Z,15.40
2023-08-26T18:40:34.219Z,15.50
2023-08-26T18:43:02.256Z,18.40
2023-08-26T18:45:30.453Z,22.40
2023-08-26T18:47:58.420Z,17.90
2023-08-26T18:50:27.221Z,20.10
2023-08-26T18:52:55.451Z,19.70
2023-08-26T18:55:23.445Z,17.40
2023-08-26T18:57:51.580Z,16.80
2023-08-26T19:00:19.623Z,18.40
2023-08-26T19:02:47.960Z,18.20
2023-08-26T19:05:16.272Z,15.40
2023-08-26T19:07:44.272Z,17.80
2023-08-26T19:10:12.212Z,19.50
2023-08-26T19:12:41.408Z,20.90
2023-08-26T19:15:10.071Z,16.30
2023-08-26T19:17:38.086Z,16.40
2023-08-26T19:20:07.033Z,17.40
2023-08-26T19:22:37.676Z,17.90
2023-08-26T19:25:06.130Z,15.00
2023-08-26T19:27:35.189Z,16.90
2023-08-26T19:30:03.723Z,18.00
2023-08-26T19:32:31.973Z,17.70
2023-08-26T19:35:00.050Z,20.30
2023-08-26T19:37:28.233Z,14.00
2023-08-26T19:39:56.287Z,16.20
2023-08-26T19:42:24.774Z,15.50
2023-08-26T19:44:52.911Z,16.90
2023-08-26T19:47:20.826Z,16.80
2023-08-26T19:49:48.934Z,18.90
2023-08-26T19:52:16.886Z,19.50
2023-08-26T19:54:45.512Z,15.40
2023-08-26T19:57:23.415Z,15.00
2023-08-26T19:59:53.310Z,15.70
2023-08-26T20:02:21.456Z,14.60
2023-08-26T20:04:50.568Z,22.40
2023-08-26T20:07:18.985Z,16.40
2023-08-26T20:09:47.054Z,13.40
2023-08-26T20:12:15.166Z,17.70
2023-08-26T20:14:43.262Z,19.60
2023-08-26T20:17:11.761Z,17.20
2023-08-26T20:19:39.821Z,16.00
2023-08-26T20:22:07.723Z,17.90
2023-08-26T20:24:35.981Z,14.70
2023-08-26T20:27:04.131Z,18.30
2023-08-26T20:29:32.905Z,16.40
2023-08-26T20:32:01.250Z,14.50
2023-08-26T20:34:29.211Z,16.40
2023-08-26T20:36:57.314Z,15.40
2023-08-26T20:39:26.360Z,15.70
2023-08-26T20:41:54.874Z,16.90
2023-08-26T20:44:22.832Z,18.10
2023-08-26T20:46:50.882Z,15.70
2023-08-26T20:49:19.968Z,16.70
2023-08-26T20:51:48.454Z,20.90
2023-08-26T20:54:16.709Z,21.50
2023-08-26T20:56:44.637Z,18.60
2023-08-26T20:59:12.625Z,14.80
2023-08-26T21:01:40.686Z,15.70
2023-08-26T21:04:08.843Z,16.80
2023-08-26T21:06:36.806Z,16.20
2023-08-26T21:09:04.851Z,15.50
2023-08-26T21:11:32.826Z,16.10
2023-08-26T21:14:00.898Z,16.20
2023-08-26T21:16:28.886Z,15.20
2023-08-26T21:18:57.179Z,19.80
2023-08-26T21:21:25.142Z,16.40
2023-08-26T21:23:52.975Z,17.10
2023-08-26T21:26:22.492Z,13.70
2023-08-26T21:28:50.503Z,15.90
2023-08-26T21:31:18.483Z,14.40
2023-08-26T21:33:46.724Z,24.30
2023-08-26T21:36:14.601Z,15.40
2023-08-26T21:38:42.548Z,14.50
2023-08-26T21:41:10.656Z,14.70
2023-08-26T21:43:38.582Z,16.00
2023-08-26T21:46:06.488Z,15.80
2023-08-26T21:48:34.405Z,21.70
2023-08-26T21:51:07.087Z,16.10
2023-08-26T21:53:35.110Z,16.50
2023-08-26T21:56:03.462Z,19.00
2023-08-26T21:58:31.469Z,17.00
2023-08-26T22:01:02.652Z,20.50
2023-08-26T22:03:30.819Z,16.60
2023-08-26T22:06:00.469Z,20.00
2023-08-26T22:08:28.513Z,13.80
2023-08-26T22:10:56.490Z,18.50
2023-08-26T22:13:24.465Z,18.00
2023-08-26T22:15:56.139Z,19.60
2023-08-26T22:18:24.031Z,14.40
2023-08-26T22:20:52.320Z,20.90
2023-08-26T22:23:20.554Z,21.00
2023-08-26T22:25:48.577Z,18.20
2023-08-26T22:28:16.517Z,16.80
2023-08-26T22:30:44.798Z,15.90
2023-08-26T22:33:12.830Z,16.80
2023-08-26T22:35:41.709Z,18.30
2023-08-26T22:38:10.140Z,18.70
2023-08-26T22:40:38.106Z,21.40
2023-08-26T22:43:05.949Z,19.30
2023-08-26T22:45:33.874Z,15.10
2023-08-26T22:48:02.020Z,17.30
2023-08-26T22:50:30.565Z,17.70
2023-08-26T22:52:58.855Z,16.40
2023-08-26T22:55:26.969Z,17.90
2023-08-26T22:57:54.946Z,17.70
2023-08-26T23:00:23.562Z,20.70
2023-08-26T23:02:51.558Z,14.40
2023-08-26T23:05:19.541Z,17.00
2023-08-26T23:07:47.495Z,11.90
2023-08-26T23:10:15.339Z,18.90
2023-08-26T23:12:43.476Z,17.00
2023-08-26T23:15:12.311Z,16.60
2023-08-26T23:17:40.590Z,17.80
2023-08-26T23:20:09.769Z,16.20
2023-08-26T23:22:37.641Z,17.40
2023-08-26T23:25:06.108Z,15.60
2023-08-26T23:27:34.118Z,19.30
2023-08-26T23:30:02.080Z,16.90
2023-08-26T23:32:30.202Z,19.40
2023-08-26T23:35:05.482Z,15.10
2023-08-26T23:37:33.624Z,19.00
2023-08-26T23:40:01.736Z,17.50
2023-08-26T23:42:29.643Z,17.50
2023-08-26T23:44:57.560Z,13.70
2023-08-26T23:47:25.717Z,14.30
2023-08-26T23:49:53.827Z,15.30
2023-08-26T23:52:21.851Z,18.50
2023-08-26T23:54:49.867Z,17.30
2023-08-26T23:57:17.794Z,18.50
2023-08-26T23:59:45.745Z,14.40
